createdAt,value
2022-08-28T00:00:49.359Z,1015.62
2022-08-28T00:05:56.550Z,1015.63
2022-08-28T00:11:03.755Z,1015.65
2022-08-28T00:16:10.960Z,1015.69
2022-08-28T00:21:18.095Z,1015.60
2022-08-28T00:26:25.287Z,1015.55
2022-08-28T00:31:32.584Z,1015.57
2022-08-28T00:36:39.655Z,1015.56
2022-08-28T00:41:46.849Z,1015.51
2022-08-28T00:46:54.075Z,1015.47
2022-08-28T00:52:01.295Z,1015.45
2022-08-28T00:57:08.484Z,1015.47
2022-08-28T01:02:18.655Z,1015.45
2022-08-28T01:07:25.768Z,1015.40
2022-08-28T01:12:32.968Z,1015.35
2022-08-28T01:17:40.168Z,1015.38
2022-08-28T01:22:47.337Z,1015.43
2022-08-28T01:27:54.537Z,1015.33
2022-08-28T01:33:01.693Z,1015.25
2022-08-28T01:38:08.931Z,1015.33
2022-08-28T01:43:16.088Z,1015.35
2022-08-28T01:48:23.285Z,1015.32
2022-08-28T01:53:32.578Z,1015.27
2022-08-28T01:58:38.543Z,1015.31
2022-08-28T02:03:44.991Z,1015.32
2022-08-28T02:08:52.108Z,1015.26
2022-08-28T02:13:59.294Z,1015.32
2022-08-28T02:19:06.522Z,1015.27
2022-08-28T02:24:13.745Z,1015.29
2022-08-28T02:29:20.988Z,1015.36
2022-08-28T02:34:28.238Z,1015.31
2022-08-28T02:39:35.481Z,1015.26
2022-08-28T02:44:42.714Z,1015.24
2022-08-28T02:49:50.001Z,1015.26
2022-08-28T02:54:57.165Z,1015.24
2022-08-28T03:00:04.373Z,1015.23
2022-08-28T03:05:11.624Z,1015.20
2022-08-28T03:10:18.847Z,1015.21
2022-08-28T03:15:26.049Z,1015.16
2022-08-28T03:20:33.213Z,1015.22
2022-08-28T03:25:40.405Z,1015.20
2022-08-28T03:30:47.628Z,1015.23
2022-08-28T03:35:54.745Z,1015.22
2022-08-28T03:41:01.902Z,1015.21
2022-08-28T03:46:09.284Z,1015.21
2022-08-28T03:51:16.294Z,1015.24
2022-08-28T03:56:23.486Z,1015.28
2022-08-28T04:01:30.881Z,1015.24
2022-08-28T04:06:37.974Z,1015.27
2022-08-28T04:11:45.142Z,1015.33
2022-08-28T04:16:52.476Z,1015.32
2022-08-28T04:21:59.533Z,1015.39
2022-08-28T04:27:06.706Z,1015.39
2022-08-28T04:32:13.983Z,1015.37
2022-08-28T04:37:21.090Z,1015.35
2022-08-28T04:42:28.264Z,1015.48
2022-08-28T04:47:35.450Z,1015.50
2022-08-28T04:52:42.645Z,1015.50
2022-08-28T04:57:49.829Z,1015.51
2022-08-28T05:02:56.999Z,1015.58
2022-08-28T05:08:04.209Z,1015.61
2022-08-28T05:13:11.473Z,1015.64
2022-08-28T05:18:18.653Z,1015.66
2022-08-28T05:23:25.880Z,1015.67
2022-08-28T05:28:33.127Z,1015.74
2022-08-28T05:33:40.319Z,1015.79
2022-08-28T05:38:47.496Z,1015.83
2022-08-28T05:43:54.706Z,1015.92
2022-08-28T05:49:01.957Z,1016.01
2022-08-28T05:54:09.146Z,1016.06
2022-08-28T05:59:16.353Z,1016.11
2022-08-28T06:04:23.747Z,1016.06
2022-08-28T06:09:30.805Z,1016.07
2022-08-28T06:14:37.989Z,1016.10
2022-08-28T06:19:45.264Z,1016.04
2022-08-28T06:24:52.462Z,1016.06
2022-08-28T06:29:59.665Z,1016.08
2022-08-28T06:35:06.831Z,1016.12
2022-08-28T06:40:14.222Z,1016.12
2022-08-28T06:45:21.290Z,1016.10
2022-08-28T06:50:28.446Z,1016.16
2022-08-28T06:55:35.727Z,1016.12
2022-08-28T07:00:43.252Z,1016.20
2022-08-28T07:05:50.712Z,1016.30
2022-08-28T07:10:57.980Z,1016.31
2022-08-28T07:16:05.373Z,1016.39
2022-08-28T07:21:12.731Z,1016.43
2022-08-28T07:26:19.700Z,1016.47
2022-08-28T07:31:26.956Z,1016.47
2022-08-28T07:36:34.145Z,1016.50
2022-08-28T07:41:41.365Z,1016.54
2022-08-28T07:46:48.557Z,1016.43
2022-08-28T07:51:58.376Z,1016.49
2022-08-28T07:57:05.741Z,1016.54
2022-08-28T08:02:13.012Z,1016.53
2022-08-28T08:07:20.179Z,1016.54
2022-08-28T08:12:27.931Z,1016.54
2022-08-28T08:17:34.550Z,1016.56
2022-08-28T08:22:41.737Z,1016.55
2022-08-28T08:27:48.909Z,1016.57
2022-08-28T08:32:56.126Z,1016.62
2022-08-28T08:38:03.274Z,1016.67
2022-08-28T08:43:10.456Z,1016.68
2022-08-28T08:48:17.679Z,1016.65
2022-08-28T08:53:24.842Z,1016.61
2022-08-28T08:58:32.069Z,1016.71
2022-08-28T09:03:39.443Z,1016.74
2022-08-28T09:08:46.500Z,1016.75
2022-08-28T09:13:53.678Z,1016.65
2022-08-28T09:19:00.983Z,1016.72
2022-08-28T09:24:11.144Z,1016.71
2022-08-28T09:29:15.411Z,1016.70
2022-08-28T09:34:25.562Z,1016.68
2022-08-28T09:39:32.813Z,1016.75
2022-08-28T09:44:39.991Z,1016.76
2022-08-28T09:49:47.180Z,1016.76
2022-08-28T09:54:54.374Z,1016.71
2022-08-28T10:00:01.630Z,1016.71
2022-08-28T10:05:08.859Z,1016.69
2022-08-28T10:10:16.050Z,1016.71
2022-08-28T10:15:23.221Z,1016.67
2022-08-28T10:20:30.397Z,1016.64
2022-08-28T10:25:37.629Z,1016.61
2022-08-28T10:30:44.857Z,1016.55
2022-08-28T10:35:51.941Z,1016.56
2022-08-28T10:40:59.137Z,1016.52
2022-08-28T10:46:06.343Z,1016.54
2022-08-28T10:51:13.499Z,1016.49
2022-08-28T10:56:20.697Z,1016.48
2022-08-28T11:01:27.942Z,1016.49
2022-08-28T11:06:35.051Z,1016.50
2022-08-28T11:11:42.257Z,1016.51
2022-08-28T11:16:49.825Z,1016.49
2022-08-28T11:21:57.012Z,1016.56
2022-08-28T11:27:04.223Z,1016.47
2022-08-28T11:32:11.402Z,1016.39
2022-08-28T11:37:18.574Z,1016.35
2022-08-28T11:42:26.001Z,1016.38
2022-08-28T11:47:33.156Z,1016.34
2022-08-28T11:52:40.338Z,1016.31
2022-08-28T11:57:47.529Z,1016.29
2022-08-28T12:02:54.832Z,1016.26
2022-08-28T12:08:01.974Z,1016.29
2022-08-28T12:13:09.254Z,1016.26
2022-08-28T12:18:16.756Z,1016.29
2022-08-28T12:23:23.955Z,1016.23
2022-08-28T12:28:31.167Z,1016.25
2022-08-28T12:33:38.379Z,1016.32
2022-08-28T12:38:45.589Z,1016.28
2022-08-28T12:43:52.792Z,1016.28
2022-08-28T12:48:59.997Z,1016.31
2022-08-28T12:54:08.161Z,1016.25
2022-08-28T12:59:15.348Z,1016.15
2022-08-28T13:04:22.527Z,1016.13
2022-08-28T13:09:29.707Z,1016.10
2022-08-28T13:14:36.893Z,1016.13
2022-08-28T13:19:44.130Z,1016.06
2022-08-28T13:24:51.368Z,1016.06
2022-08-28T13:29:59.993Z,1016.05
2022-08-28T13:35:05.710Z,1015.98
2022-08-28T13:40:30.354Z,1015.98
2022-08-28T13:45:22.206Z,1015.87
2022-08-28T13:50:29.402Z,1015.82
2022-08-28T13:55:36.582Z,1015.91
2022-08-28T14:00:43.855Z,1015.83
2022-08-28T14:05:50.942Z,1015.82
2022-08-28T14:10:58.146Z,1015.80
2022-08-28T14:16:05.346Z,1015.85
2022-08-28T14:21:12.514Z,1015.82
2022-08-28T14:26:19.772Z,1015.79
2022-08-28T14:31:27.046Z,1015.79
2022-08-28T14:36:36.275Z,1015.78
2022-08-28T14:41:43.455Z,1015.80
2022-08-28T14:46:50.708Z,1015.72
2022-08-28T14:51:57.931Z,1015.69
2022-08-28T14:57:05.111Z,1015.73
2022-08-28T15:02:12.298Z,1015.73
2022-08-28T15:07:19.490Z,1015.72
2022-08-28T15:12:26.666Z,1015.69
2022-08-28T15:17:34.666Z,1015.70
2022-08-28T15:22:41.121Z,1015.72
2022-08-28T15:27:48.329Z,1015.66
2022-08-28T15:32:55.523Z,1015.69
2022-08-28T15:38:02.977Z,1015.66
2022-08-28T15:43:10.178Z,1015.67
2022-08-28T15:48:17.352Z,1015.55
2022-08-28T15:53:24.556Z,1015.55
2022-08-28T15:58:31.736Z,1015.57
2022-08-28T16:03:39.023Z,1015.64
2022-08-28T16:08:46.219Z,1015.68
2022-08-28T16:13:53.384Z,1015.63
2022-08-28T16:19:00.598Z,1015.69
2022-08-28T16:24:07.760Z,1015.73
2022-08-28T16:29:14.950Z,1015.73
2022-08-28T16:34:22.126Z,1015.77
2022-08-28T16:39:29.297Z,1015.79
2022-08-28T16:44:36.500Z,1015.79
2022-08-28T16:49:43.686Z,1015.77
2022-08-28T16:54:50.904Z,1015.80
2022-08-28T16:59:58.118Z,1015.76
2022-08-28T17:05:05.341Z,1015.79
2022-08-28T17:10:12.521Z,1015.80
2022-08-28T17:15:19.834Z,1015.85
2022-08-28T17:20:28.744Z,1015.83
2022-08-28T17:25:35.987Z,1015.92
2022-08-28T17:30:43.389Z,1015.91
2022-08-28T17:35:52.147Z,1016.02
2022-08-28T17:40:58.013Z,1015.99
2022-08-28T17:46:07.202Z,1016.01
2022-08-28T17:51:14.678Z,1016.11
2022-08-28T17:56:35.996Z,1016.15
2022-08-28T18:01:32.464Z,1016.17
2022-08-28T18:06:39.966Z,1016.19
2022-08-28T18:11:47.487Z,1016.26
2022-08-28T18:16:55.092Z,1016.28
2022-08-28T18:22:02.620Z,1016.34
2022-08-28T18:27:10.217Z,1016.40
2022-08-28T18:32:17.832Z,1016.45
2022-08-28T18:37:25.342Z,1016.44
2022-08-28T18:42:32.960Z,1016.52
2022-08-28T18:47:40.570Z,1016.57
2022-08-28T18:52:48.228Z,1016.65
2022-08-28T18:57:55.803Z,1016.74
2022-08-28T19:03:03.599Z,1016.80
2022-08-28T19:08:11.120Z,1016.80
2022-08-28T19:13:18.644Z,1016.91
2022-08-28T19:18:26.266Z,1016.94
2022-08-28T19:23:33.877Z,1017.02
2022-08-28T19:28:41.488Z,1017.10
2022-08-28T19:33:51.661Z,1017.18
2022-08-28T19:38:59.222Z,1017.20
2022-08-28T19:44:06.789Z,1017.25
2022-08-28T19:49:14.406Z,1017.29
2022-08-28T19:54:22.125Z,1017.40
2022-08-28T19:59:29.735Z,1017.41
2022-08-28T20:04:37.355Z,1017.40
2022-08-28T20:09:45.224Z,1017.45
2022-08-28T20:14:52.915Z,1017.53
2022-08-28T20:20:03.059Z,1017.55
2022-08-28T20:25:08.112Z,1017.56
2022-08-28T20:30:15.449Z,1017.58
2022-08-28T20:35:22.628Z,1017.56
2022-08-28T20:40:29.982Z,1017.53
2022-08-28T20:45:37.085Z,1017.41
2022-08-28T20:50:44.263Z,1017.48
2022-08-28T20:55:51.470Z,1017.45
2022-08-28T21:00:59.419Z,1017.38
2022-08-28T21:06:05.868Z,1017.40
2022-08-28T21:11:13.043Z,1017.50
2022-08-28T21:16:20.336Z,1017.47
2022-08-28T21:21:27.477Z,1017.56
2022-08-28T21:26:34.665Z,1017.55
2022-08-28T21:31:41.855Z,1017.54
2022-08-28T21:36:50.392Z,1017.57
2022-08-28T21:41:56.256Z,1017.62
2022-08-28T21:47:03.507Z,1017.63
2022-08-28T21:52:10.697Z,1017.63
2022-08-28T21:57:17.946Z,1017.62
2022-08-28T22:02:25.314Z,1017.66
2022-08-28T22:07:32.462Z,1017.70
2022-08-28T22:12:39.649Z,1017.69
2022-08-28T22:17:47.043Z,1017.70
2022-08-28T22:22:54.313Z,1017.72
2022-08-28T22:28:01.467Z,1017.79
2022-08-28T22:33:09.185Z,1017.86
2022-08-28T22:38:16.389Z,1017.83
2022-08-28T22:43:23.689Z,1017.82
2022-08-28T22:48:31.706Z,1017.85
2022-08-28T22:53:38.929Z,1017.85
2022-08-28T22:58:46.122Z,1017.83
2022-08-28T23:03:53.385Z,1017.88
2022-08-28T23:09:00.588Z,1017.92
2022-08-28T23:14:07.779Z,1017.95
2022-08-28T23:19:16.609Z,1017.89
2022-08-28T23:24:25.562Z,1017.92
2022-08-28T23:29:32.745Z,1017.96
2022-08-28T23:34:40.046Z,1017.94
2022-08-28T23:39:47.240Z,1017.94
2022-08-28T23:44:58.016Z,1017.89
2022-08-28T23:50:05.194Z,1017.88
2022-08-28T23:55:12.460Z,1017.90
